Time;durP1;ratioP1;P1;durP2;ratioP2;P2;SDS_P1;SDS_P2;PMS_P1;PMS_P2;Temp;Humidity;BMP_temperature;BMP_pressure;BME280_temperature;BME280_humidity;BME280_pressure;Samples;Min_cycle;Max_cycle;Signal;HPM_P1;HPM_P2
2022/03/10 00:00:43;;;;;;;12.20;10.50;;;;;;;7.17;48.23;102384.22;4998761;28;20194;-65
2022/03/10 00:03:09;;;;;;;9.80;8.80;;;;;;;7.57;47.88;102391.34;4998761;28;20175;-66
2022/03/10 00:05:34;;;;;;;10.40;8.50;;;;;;;7.16;49.12;102395.41;4997923;28;20548;-66
2022/03/10 00:07:59;;;;;;;10.77;8.80;;;;;;;6.86;49.10;102380.06;4998505;28;20310;-65
2022/03/10 00:10:25;;;;;;;9.73;8.13;;;;;;;6.57;49.55;102383.72;4998498;28;20183;-65
2022/03/10 00:12:51;;;;;;;13.07;9.33;;;;;;;7.27;48.72;102388.16;4998726;28;20366;-66
2022/03/10 00:15:20;;;;;;;11.07;9.33;;;;;;;7.27;48.09;102390.75;4997698;28;20203;-66
2022/03/10 00:17:45;;;;;;;12.03;9.10;;;;;;;7.09;48.66;102398.50;4980795;28;20432;-65
2022/03/10 00:20:10;;;;;;;12.30;9.13;;;;;;;7.35;48.54;102397.22;4980547;28;20494;-66
2022/03/10 00:23:02;;;;;;;12.50;9.60;;;;;;;6.58;49.75;102398.47;4979011;28;20182;-67
2022/03/10 00:25:27;;;;;;;9.60;8.40;;;;;;;7.23;49.01;102406.97;4976912;28;20227;-67
2022/03/10 00:27:53;;;;;;;9.53;8.50;;;;;;;6.85;49.94;102400.75;4998215;28;20787;-67
2022/03/10 00:30:19;;;;;;;12.83;8.60;;;;;;;6.51;50.37;102406.75;4998340;28;20187;-67
2022/03/10 00:32:50;;;;;;;11.27;8.80;;;;;;;6.96;49.35;102407.34;4998887;28;20446;-67
2022/03/10 00:35:23;;;;;;;10.30;8.97;;;;;;;6.86;49.86;102410.28;4997630;28;20247;-68
2022/03/10 00:37:49;;;;;;;10.37;9.33;;;;;;;6.63;50.66;102417.75;4998226;28;20426;-66
2022/03/10 00:40:16;;;;;;;11.13;9.97;;;;;;;6.63;50.25;102417.75;4981666;28;20411;-66
2022/03/10 00:42:42;;;;;;;11.70;9.60;;;;;;;6.81;50.19;102411.75;4997662;28;20464;-67
2022/03/10 00:45:07;;;;;;;13.70;9.80;;;;;;;6.83;50.39;102408.44;4997300;28;20457;-67
2022/03/10 00:47:33;;;;;;;11.13;9.93;;;;;;;6.40;51.03;102424.31;4998498;28;20808;-69
2022/03/10 00:49:59;;;;;;;12.60;10.50;;;;;;;6.92;49.95;102418.38;4998371;28;20200;-67
2022/03/10 00:52:24;;;;;;;10.80;9.03;;;;;;;6.42;51.13;102414.03;4998154;28;20442;-66
2022/03/10 00:54:50;;;;;;;10.97;9.87;;;;;;;6.58;50.91;102409.72;4997567;28;20180;-66
2022/03/10 00:57:15;;;;;;;11.37;9.23;;;;;;;6.76;50.91;102415.81;4998834;28;20262;-65
2022/03/10 00:59:41;;;;;;;11.87;9.77;;;;;;;6.25;52.23;102416.56;5001590;28;20295;-67
2022/03/10 01:02:06;;;;;;;10.40;8.80;;;;;;;6.44;51.61;102415.91;5001394;28;20278;-66
2022/03/10 01:04:31;;;;;;;11.97;10.50;;;;;;;6.52;51.74;102412.00;5000832;28;20270;-66
2022/03/10 01:06:56;;;;;;;12.53;9.17;;;;;;;6.38;52.36;102410.38;5001722;28;20184;-66
2022/03/10 01:09:22;;;;;;;11.20;9.30;;;;;;;6.06;53.25;102420.75;5001444;28;20227;-66
2022/03/10 01:11:47;;;;;;;13.43;11.20;;;;;;;6.25;52.65;102413.97;5000364;28;20195;-66
2022/03/10 01:14:12;;;;;;;12.70;10.17;;;;;;;6.19;52.46;102416.25;5000921;28;20187;-67
2022/03/10 01:16:38;;;;;;;12.33;10.10;;;;;;;6.21;52.74;102412.03;5001447;28;20222;-66
2022/03/10 01:19:04;;;;;;;12.43;10.23;;;;;;;6.06;52.92;102418.19;4991754;28;20409;-67
2022/03/10 01:21:32;;;;;;;14.80;10.27;;;;;;;6.25;52.72;102419.16;4982210;28;20183;-67
2022/03/10 01:23:57;;;;;;;12.80;10.27;;;;;;;6.26;52.53;102410.59;4984305;28;20187;-66
2022/03/10 01:26:23;;;;;;;21.40;10.50;;;;;;;5.90;53.92;102405.16;5000659;28;20489;-67
2022/03/10 01:28:49;;;;;;;13.63;10.60;;;;;;;5.89;53.84;102399.06;5001598;28;20164;-66
2022/03/10 01:31:14;;;;;;;10.93;9.10;;;;;;;5.72;54.64;102398.16;5001113;28;20862;-65
2022/03/10 01:33:39;;;;;;;12.30;9.70;;;;;;;5.72;54.08;102394.66;4999495;28;20172;-67
2022/03/10 01:36:04;;;;;;;12.40;10.43;;;;;;;6.05;54.22;102406.03;5001969;28;20200;-67
2022/03/10 01:38:30;;;;;;;10.67;9.30;;;;;;;5.73;54.89;102397.31;5002816;28;20175;-65
2022/03/10 01:40:55;;;;;;;12.37;10.10;;;;;;;5.58;55.42;102404.22;5002900;28;20353;-67
2022/03/10 01:43:20;;;;;;;11.67;10.00;;;;;;;5.54;54.84;102400.56;5002204;28;20529;-65
2022/03/10 01:45:46;;;;;;;17.33;9.73;;;;;;;5.59;55.04;102402.53;5000733;28;20246;-67
2022/03/10 01:48:11;;;;;;;11.37;9.73;;;;;;;5.84;54.75;102405.69;4999938;28;20187;-65
2022/03/10 01:50:36;;;;;;;11.80;10.40;;;;;;;5.94;54.12;102412.28;5001405;28;20210;-65
2022/03/10 01:53:02;;;;;;;10.40;9.30;;;;;;;5.69;55.01;102416.06;5000871;28;20435;-67
2022/03/10 01:55:28;;;;;;;11.90;9.43;;;;;;;5.38;55.31;102422.06;5000615;28;20334;-68
2022/03/10 01:57:53;;;;;;;13.53;11.33;;;;;;;5.69;54.47;102416.06;5001917;28;20418;-65
2022/03/10 02:00:19;;;;;;;11.67;9.83;;;;;;;5.48;55.56;102414.84;5000969;28;20175;-66
2022/03/10 02:02:45;;;;;;;10.43;9.43;;;;;;;5.62;55.14;102408.78;5000190;28;20183;-66
2022/03/10 02:05:10;;;;;;;11.70;9.40;;;;;;;5.40;55.39;102407.53;5000411;28;20450;-65
2022/03/10 02:10:23;;;;;;;10.83;9.70;;;;;;;5.37;55.48;102394.44;4985216;28;20237;-65
2022/03/10 02:12:54;;;;;;;12.03;9.83;;;;;;;5.33;56.08;102402.81;5000457;28;20418;-65
2022/03/10 02:18:05;;;;;;;13.47;10.20;;;;;;;5.28;56.32;102412.00;4983986;28;20529;-64
2022/03/10 02:20:30;;;;;;;11.30;10.10;;;;;;;5.16;56.70;102407.00;4981136;28;20411;-65
2022/03/10 02:22:56;;;;;;;11.33;10.13;;;;;;;5.17;56.36;102406.22;4980946;28;20691;-66
2022/03/10 02:25:22;;;;;;;11.80;9.90;;;;;;;5.09;56.35;102403.97;4998682;28;20187;-67
2022/03/10 02:27:55;;;;;;;14.93;11.30;;;;;;;5.16;56.74;102416.47;5000586;28;20250;-65
2022/03/10 02:30:22;;;;;;;11.90;10.23;;;;;;;5.17;56.17;102410.50;5000115;28;20426;-65
2022/03/10 02:32:48;;;;;;;14.03;10.53;;;;;;;5.06;56.77;102404.69;4983318;28;20518;-65
2022/03/10 02:35:14;;;;;;;13.00;10.13;;;;;;;5.12;56.53;102410.22;4999036;28;20467;-67
2022/03/10 02:37:40;;;;;;;11.70;10.20;;;;;;;5.03;56.39;102401.91;5000019;28;20469;-68
2022/03/10 02:40:06;;;;;;;6.60;6.00;;;;;;;10.97;67.33;102386.31;4999749;28;20493;-56
2022/03/10 02:42:31;;;;;;;11.40;9.43;;;;;;;6.64;53.45;102410.88;5000068;28;20417;-66
2022/03/10 02:44:57;;;;;;;12.23;10.27;;;;;;;6.18;54.87;102404.09;4999005;28;20450;-67
2022/03/10 02:47:22;;;;;;;14.43;11.13;;;;;;;5.46;55.40;102406.13;4998860;28;20242;-68
2022/03/10 02:49:47;;;;;;;12.73;10.27;;;;;;;5.62;55.83;102406.19;5000392;28;20184;-67
2022/03/10 02:52:13;;;;;;;12.00;10.23;;;;;;;5.33;55.90;102404.50;4981411;28;20226;-67
2022/03/10 02:54:38;;;;;;;13.83;10.57;;;;;;;5.25;56.89;102410.94;4982878;28;20172;-67
2022/03/10 02:57:04;;;;;;;12.30;10.27;;;;;;;5.20;55.91;102403.78;5000040;28;20573;-67
2022/03/10 02:59:30;;;;;;;11.93;10.57;;;;;;;5.31;56.57;102412.19;4999535;28;20175;-67
2022/03/10 03:01:58;;;;;;;13.63;9.90;;;;;;;5.06;56.55;102405.56;4998895;28;20450;-66
2022/03/10 03:04:25;;;;;;;11.70;10.40;;;;;;;5.06;56.97;102404.69;4999866;28;20182;-66
2022/03/10 03:06:50;;;;;;;11.63;10.07;;;;;;;4.99;56.68;102403.44;4998912;28;20775;-67
2022/03/10 03:09:16;;;;;;;16.03;11.97;;;;;;;5.27;56.11;102399.00;4999106;28;20494;-67
2022/03/10 03:11:41;;;;;;;12.90;10.70;;;;;;;5.14;56.53;102405.13;4998909;28;20183;-69
2022/03/10 03:14:07;;;;;;;13.70;10.80;;;;;;;5.03;57.44;102409.66;4999249;28;20175;-67
2022/03/10 03:16:32;;;;;;;14.20;10.97;;;;;;;5.33;56.37;102414.84;4999204;28;20491;-67
2022/03/10 03:18:57;;;;;;;13.93;10.70;;;;;;;5.15;56.51;102414.69;4998580;28;20219;-66
2022/03/10 03:21:25;;;;;;;15.20;10.47;;;;;;;5.26;56.34;102416.19;4997946;28;20201;-66
2022/03/10 03:23:51;;;;;;;18.23;11.20;;;;;;;5.28;56.04;102424.06;4999020;28;20195;-67
2022/03/10 03:26:16;;;;;;;13.77;10.53;;;;;;;4.97;56.05;102425.72;4999359;28;20502;-67
2022/03/10 03:28:43;;;;;;;12.90;10.30;;;;;;;5.03;56.88;102414.84;4998963;28;20186;-67
2022/03/10 03:31:09;;;;;;;13.10;10.60;;;;;;;5.20;56.67;102418.44;4997537;28;20182;-66
2022/03/10 03:33:35;;;;;;;13.70;10.50;;;;;;;4.97;57.06;102425.72;4999733;28;20499;-67
2022/03/10 03:36:00;;;;;;;14.47;11.00;;;;;;;4.73;57.31;102427.69;4982274;28;20561;-67
2022/03/10 03:38:26;;;;;;;14.00;10.70;;;;;;;4.87;56.84;102433.69;4999219;28;20206;-67
2022/03/10 03:40:51;;;;;;;14.03;11.13;;;;;;;4.40;57.81;102435.19;4998741;28;20210;-67
2022/03/10 03:43:16;;;;;;;11.97;10.57;;;;;;;4.76;57.15;102440.78;4981421;28;20221;-66
2022/03/10 03:45:42;;;;;;;12.87;11.07;;;;;;;5.18;57.07;102438.13;4982182;28;20234;-66
2022/03/10 03:48:07;;;;;;;12.67;10.70;;;;;;;4.63;57.56;102449.50;4982360;28;20172;-67
2022/03/10 03:50:33;;;;;;;14.03;11.83;;;;;;;4.81;57.06;102447.16;4998788;28;20207;-67
2022/03/10 03:52:58;;;;;;;12.53;10.50;;;;;;;5.08;56.73;102438.38;4997909;28;20225;-68
2022/03/10 03:55:24;;;;;;;13.10;10.47;;;;;;;4.33;57.31;102439.06;4999197;28;20264;-67
2022/03/10 03:57:49;;;;;;;13.13;10.80;;;;;;;4.30;57.93;102449.22;4998100;28;20174;-66
2022/03/10 04:00:18;;;;;;;14.63;10.50;;;;;;;4.24;58.14;102443.66;4998589;28;20273;-67
2022/03/10 04:02:46;;;;;;;14.07;10.47;;;;;;;4.26;58.03;102447.19;4998574;28;20279;-66
2022/03/10 04:05:12;;;;;;;13.60;10.67;;;;;;;4.34;58.08;102448.59;4998718;28;20411;-67
2022/03/10 04:07:37;;;;;;;15.20;9.80;;;;;;;4.30;58.03;102454.38;4998337;28;20411;-67
2022/03/10 04:10:04;;;;;;;15.47;10.90;;;;;;;4.27;58.46;102456.72;4982678;28;20421;-66
2022/03/10 04:12:29;;;;;;;12.80;10.23;;;;;;;4.29;58.96;102449.09;4997520;28;20274;-67
2022/03/10 04:14:54;;;;;;;15.83;10.10;;;;;;;3.92;57.97;102455.38;4993651;28;20537;-66
2022/03/10 04:17:20;;;;;;;11.33;10.20;;;;;;;4.18;58.47;102458.72;4999221;28;20183;-66
2022/03/10 04:19:45;;;;;;;11.83;10.00;;;;;;;4.48;57.15;102452.03;4995840;28;20240;-67
2022/03/10 04:22:10;;;;;;;12.33;10.60;;;;;;;4.16;57.46;102474.13;4997421;28;20242;-67
2022/03/10 04:24:36;;;;;;;11.70;10.20;;;;;;;4.51;57.35;102466.84;4999283;28;20180;-66
2022/03/10 04:27:02;;;;;;;12.87;10.20;;;;;;;4.12;58.00;102466.09;4981611;28;20222;-67
2022/03/10 04:29:27;;;;;;;14.37;10.07;;;;;;;4.35;58.04;102471.03;4997628;28;20229;-67
2022/03/10 04:31:52;;;;;;;12.57;10.00;;;;;;;4.48;56.90;102476.94;4998040;28;20207;-68
2022/03/10 04:34:18;;;;;;;14.10;10.93;;;;;;;4.68;57.23;102479.09;5002148;28;20207;-67
2022/03/10 04:36:43;;;;;;;13.13;9.93;;;;;;;4.12;58.43;102484.16;5001262;28;20297;-66
2022/03/10 04:39:08;;;;;;;14.63;10.83;;;;;;;4.27;57.54;102482.56;5002355;28;20210;-66
2022/03/10 04:41:36;;;;;;;11.30;9.73;;;;;;;4.58;56.51;102481.91;5002261;28;20195;-66
2022/03/10 04:44:02;;;;;;;12.30;9.90;;;;;;;3.84;57.65;102490.13;5002162;28;20439;-66
2022/03/10 04:46:27;;;;;;;12.73;10.07;;;;;;;4.21;57.96;102501.13;5001766;28;20437;-66
2022/03/10 04:48:53;;;;;;;12.17;10.40;;;;;;;4.18;58.07;102490.63;5001865;28;20186;-67
2022/03/10 04:51:19;;;;;;;16.00;11.03;;;;;;;4.33;58.27;102494.94;5002100;28;20195;-66
2022/03/10 04:53:45;;;;;;;12.63;10.07;;;;;;;3.92;58.97;102494.09;5002131;28;20195;-66
2022/03/10 04:56:10;;;;;;;12.60;10.40;;;;;;;4.31;58.71;102494.84;4999785;28;20216;-67
2022/03/10 04:58:36;;;;;;;15.50;10.97;;;;;;;4.30;57.11;102497.34;5001679;28;20427;-67
2022/03/10 05:01:01;;;;;;;15.10;10.77;;;;;;;4.33;57.73;102494.94;5002124;28;20172;-67
2022/03/10 05:03:26;;;;;;;14.73;12.83;;;;;;;4.22;57.69;102494.28;5001648;28;20179;-67
2022/03/10 05:05:52;;;;;;;14.60;10.70;;;;;;;4.51;57.76;102490.06;4999208;28;20278;-68
2022/03/10 05:08:17;;;;;;;12.80;11.10;;;;;;;4.28;57.38;102494.69;5000848;28;20252;-68
2022/03/10 05:10:42;;;;;;;16.50;11.20;;;;;;;4.22;57.35;102489.09;5001666;28;20522;-68
2022/03/10 05:13:07;;;;;;;13.33;10.50;;;;;;;3.98;58.76;102485.88;5001546;28;20202;-66
2022/03/10 05:15:33;;;;;;;13.07;10.77;;;;;;;4.10;57.94;102486.66;5001444;28;20195;-67
2022/03/10 05:18:00;;;;;;;15.33;11.10;;;;;;;3.96;58.34;102488.31;5000696;28;20201;-66
2022/03/10 05:20:26;;;;;;;15.83;11.07;;;;;;;4.55;57.59;102490.34;5001977;28;20172;-66
2022/03/10 05:22:53;;;;;;;14.03;10.33;;;;;;;4.62;57.90;102489.03;5000424;28;20439;-67
2022/03/10 05:25:23;;;;;;;13.60;11.20;;;;;;;4.39;56.87;102487.59;5001210;28;20411;-68
2022/03/10 05:27:49;;;;;;;14.47;10.97;;;;;;;4.93;56.94;102490.06;5000877;28;20824;-67
2022/03/10 05:30:15;;;;;;;12.13;10.20;;;;;;;4.47;57.66;102490.69;5001642;28;20458;-67
2022/03/10 05:32:40;;;;;;;12.97;10.77;;;;;;;4.39;57.01;102487.59;5000936;28;20241;-66
2022/03/10 05:35:08;;;;;;;14.30;11.70;;;;;;;4.41;58.25;102487.69;5001393;28;20698;-67
2022/03/10 05:37:37;;;;;;;14.60;11.63;;;;;;;4.42;57.97;102484.34;4999961;28;20275;-66
2022/03/10 05:40:05;;;;;;;13.97;11.30;;;;;;;4.32;57.31;102488.03;4984234;28;20430;-67
2022/03/10 05:42:31;;;;;;;17.50;11.93;;;;;;;4.48;57.94;102487.28;5001415;28;20415;-67
2022/03/10 05:44:56;;;;;;;15.13;12.23;;;;;;;4.31;58.01;102491.41;4999915;28;20501;-67
2022/03/10 05:47:21;;;;;;;19.97;12.77;;;;;;;4.04;58.63;102502.63;4999998;28;20187;-67
2022/03/10 05:49:49;;;;;;;17.00;12.80;;;;;;;4.63;57.41;102508.91;5001334;28;20449;-67
2022/03/10 05:52:14;;;;;;;17.43;11.50;;;;;;;4.52;57.07;102502.19;5000629;28;20246;-66
2022/03/10 05:54:39;;;;;;;15.70;12.17;;;;;;;4.58;58.54;102496.53;4999933;28;20446;-67
2022/03/10 05:57:05;;;;;;;16.10;11.20;;;;;;;4.48;57.86;102503.69;4999831;28;20215;-66
2022/03/10 05:59:30;;;;;;;21.70;12.40;;;;;;;4.44;57.18;102495.63;5000537;28;20175;-66
2022/03/10 06:01:55;;;;;;;13.53;11.03;;;;;;;4.55;57.47;102497.22;4985083;28;20207;-67
2022/03/10 06:04:21;;;;;;;17.73;13.40;;;;;;;4.51;56.90;102500.41;4985078;28;20186;-66
2022/03/10 06:06:46;;;;;;;15.40;10.93;;;;;;;4.90;56.51;102511.44;5000000;28;20199;-66
2022/03/10 06:09:11;;;;;;;14.87;12.67;;;;;;;4.65;56.93;102506.44;5000192;28;20492;-66
2022/03/10 06:11:37;;;;;;;18.63;11.77;;;;;;;4.52;57.14;102509.94;4999964;28;20234;-66
2022/03/10 06:14:02;;;;;;;14.60;12.17;;;;;;;4.61;58.57;102507.91;5000551;28;20203;-67
2022/03/10 06:16:28;;;;;;;15.67;11.70;;;;;;;4.29;56.85;102509.38;4994522;28;20215;-67
2022/03/10 06:18:53;;;;;;;18.80;12.50;;;;;;;4.58;56.95;102507.72;4999520;28;20475;-66
2022/03/10 06:21:19;;;;;;;18.47;12.50;;;;;;;4.49;56.63;102513.22;5000409;28;20171;-67
2022/03/10 06:23:44;;;;;;;17.20;12.00;;;;;;;4.33;57.37;102529.44;5000194;28;20226;-67
2022/03/10 06:26:09;;;;;;;19.47;11.40;;;;;;;4.57;57.51;102521.44;5000602;28;20199;-67
2022/03/10 06:28:34;;;;;;;15.77;11.70;;;;;;;4.48;56.73;102526.00;4998273;28;20858;-68
2022/03/10 06:31:00;;;;;;;14.63;12.37;;;;;;;4.76;56.61;102532.94;4999879;28;20183;-68
2022/03/10 06:33:25;;;;;;;14.83;12.23;;;;;;;4.76;56.00;102514.84;5000432;28;20179;-68
2022/03/10 06:35:51;;;;;;;21.87;14.13;;;;;;;4.86;56.79;102520.69;4999888;28;20223;-66
2022/03/10 06:38:16;;;;;;;18.47;12.10;;;;;;;4.99;56.24;102524.94;4999350;28;20190;-66
2022/03/10 06:40:42;;;;;;;13.87;12.00;;;;;;;4.93;55.90;102524.53;4998699;28;20465;-67
2022/03/10 06:43:07;;;;;;;17.67;12.67;;;;;;;4.97;55.13;102529.09;4999911;28;20232;-66
2022/03/10 06:45:32;;;;;;;17.63;13.03;;;;;;;5.26;55.45;102526.50;4997447;28;20186;-66
2022/03/10 06:47:58;;;;;;;22.57;15.60;;;;;;;4.75;55.56;102531.13;5000123;28;20184;-66
2022/03/10 06:50:23;;;;;;;17.70;13.63;;;;;;;5.09;55.66;102522.88;4997496;28;20199;-67
2022/03/10 06:52:50;;;;;;;17.33;12.80;;;;;;;5.03;55.70;102539.81;4999617;28;20907;-67
2022/03/10 06:55:16;;;;;;;20.50;13.90;;;;;;;5.28;55.47;102532.66;4998606;28;20603;-67
2022/03/10 06:57:41;;;;;;;14.97;11.70;;;;;;;5.30;54.75;102544.84;4999558;28;20430;-67
2022/03/10 07:00:07;;;;;;;16.80;12.47;;;;;;;5.01;55.25;102543.09;4997881;28;20521;-67
2022/03/10 07:02:32;;;;;;;17.30;13.57;;;;;;;5.72;53.70;102552.50;4997219;28;20266;-67
2022/03/10 07:04:58;;;;;;;18.93;13.47;;;;;;;7.32;49.39;102547.53;4999687;28;20425;-67
2022/03/10 07:07:23;;;;;;;17.67;13.87;;;;;;;8.56;44.84;102540.66;4999061;28;20289;-66
2022/03/10 07:09:49;;;;;;;19.53;12.50;;;;;;;10.05;41.60;102545.41;4999687;28;20469;-68
2022/03/10 07:12:14;;;;;;;17.40;12.50;;;;;;;10.92;40.82;102534.03;4998022;28;20183;-67
2022/03/10 07:14:40;;;;;;;16.80;12.93;;;;;;;10.74;40.77;102540.34;4999160;28;20183;-67
2022/03/10 07:17:06;;;;;;;18.23;13.40;;;;;;;10.44;40.17;102540.94;4997573;28;20223;-68
2022/03/10 07:19:31;;;;;;;16.63;13.27;;;;;;;11.85;37.60;102534.66;4997851;28;20230;-66
2022/03/10 07:21:57;;;;;;;17.73;12.23;;;;;;;12.69;36.15;102531.25;4999139;28;20796;-67
2022/03/10 07:24:22;;;;;;;14.07;12.57;;;;;;;12.58;36.69;102532.63;4999675;28;20418;-67
2022/03/10 07:26:47;;;;;;;14.70;13.00;;;;;;;10.81;38.80;102538.84;4998557;28;20266;-67
2022/03/10 07:29:14;;;;;;;19.80;12.60;;;;;;;12.64;36.23;102525.84;4982849;28;20186;-67
2022/03/10 07:31:39;;;;;;;16.40;13.30;;;;;;;12.09;35.55;102521.53;4996269;28;20596;-67
2022/03/10 07:34:04;;;;;;;14.70;12.90;;;;;;;13.09;35.06;102514.03;4998851;28;20429;-68
2022/03/10 07:36:30;;;;;;;13.57;12.10;;;;;;;11.85;37.01;102527.69;4998755;28;20237;-69
2022/03/10 07:38:55;;;;;;;16.63;12.97;;;;;;;13.87;33.60;102516.06;4981652;28;20221;-67
2022/03/10 07:41:20;;;;;;;15.73;12.63;;;;;;;13.05;34.79;102520.03;4997210;28;20233;-69
2022/03/10 07:43:46;;;;;;;15.83;13.63;;;;;;;11.88;35.98;102521.69;4998676;28;20207;-68
2022/03/10 07:46:11;;;;;;;13.67;12.30;;;;;;;12.98;34.30;102516.34;4999399;28;20164;-68
2022/03/10 07:48:36;;;;;;;14.20;12.77;;;;;;;13.19;33.86;102512.56;4981751;28;20195;-68
2022/03/10 07:51:02;;;;;;;16.47;13.17;;;;;;;12.46;36.53;102523.56;4998121;28;20191;-69
2022/03/10 07:53:28;;;;;;;15.70;12.80;;;;;;;12.15;36.59;102520.84;4999082;28;20230;-68
2022/03/10 07:55:56;;;;;;;14.07;12.43;;;;;;;13.44;33.86;102513.25;4997474;28;20672;-68
2022/03/10 07:58:23;;;;;;;16.80;13.83;;;;;;;11.69;35.65;102536.75;4998606;28;20254;-68
2022/03/10 08:00:49;;;;;;;16.90;13.87;;;;;;;12.68;34.73;102534.69;4997255;28;20409;-68
2022/03/10 08:03:14;;;;;;;15.83;13.23;;;;;;;13.70;32.71;102537.50;4998012;28;20743;-69
2022/03/10 08:05:39;;;;;;;15.80;13.30;;;;;;;13.02;34.57;102525.19;4997134;28;20497;-67
2022/03/10 08:08:05;;;;;;;18.80;12.97;;;;;;;13.95;33.03;102522.38;5002558;28;20317;-68
2022/03/10 08:10:30;;;;;;;15.03;13.33;;;;;;;13.40;33.98;102521.88;5001020;28;20195;-68
2022/03/10 08:12:56;;;;;;;18.40;13.50;;;;;;;13.00;34.00;102524.25;5002368;28;20242;-67
2022/03/10 08:15:21;;;;;;;17.63;13.23;;;;;;;13.44;33.92;102516.75;5000644;28;20215;-67
2022/03/10 08:17:47;;;;;;;18.30;13.20;;;;;;;14.03;33.21;102514.72;5001648;28;20628;-67
2022/03/10 08:20:12;;;;;;;20.63;14.13;;;;;;;13.67;33.61;102508.59;5001132;28;20712;-68
2022/03/10 08:22:38;;;;;;;14.90;13.43;;;;;;;13.52;33.70;102509.09;5002365;28;20233;-69
2022/03/10 08:25:03;;;;;;;15.50;14.00;;;;;;;14.17;33.31;102501.91;5000481;28;20254;-68
2022/03/10 08:27:29;;;;;;;16.23;13.73;;;;;;;12.78;34.07;102518.41;5002489;28;20266;-68
2022/03/10 08:29:54;;;;;;;16.93;13.60;;;;;;;14.24;32.46;102509.97;5002270;28;20180;-67
2022/03/10 08:32:21;;;;;;;14.30;12.90;;;;;;;14.78;31.64;102497.16;4983703;28;20208;-67
2022/03/10 08:34:46;;;;;;;17.40;13.40;;;;;;;14.59;31.98;102499.38;4983080;28;20461;-67
2022/03/10 08:37:12;;;;;;;15.37;13.73;;;;;;;13.08;33.56;102509.66;4982394;28;20434;-68
2022/03/10 08:39:37;;;;;;;15.93;13.40;;;;;;;14.18;33.28;102498.44;4982510;28;20176;-67
2022/03/10 08:42:02;;;;;;;17.77;14.33;;;;;;;14.67;32.47;102496.03;4983066;28;20175;-68
2022/03/10 08:44:28;;;;;;;18.80;13.53;;;;;;;14.73;32.27;102499.69;5000367;28;20222;-68
2022/03/10 08:46:53;;;;;;;20.10;14.00;;;;;;;15.45;31.38;102502.81;5001858;28;20190;-67
2022/03/10 08:49:18;;;;;;;14.70;12.93;;;;;;;15.04;31.26;102505.53;4998718;28;20247;-68
2022/03/10 08:51:44;;;;;;;18.10;14.00;;;;;;;15.20;30.97;102500.59;4992941;28;20246;-68
2022/03/10 08:54:12;;;;;;;15.43;13.47;;;;;;;13.76;32.87;102514.09;4990828;28;20195;-70
2022/03/10 08:56:37;;;;;;;14.60;13.10;;;;;;;14.78;32.18;102513.78;4982583;28;20510;-69
2022/03/10 08:59:02;;;;;;;14.97;13.57;;;;;;;15.59;31.06;102504.81;4995730;28;20442;-69
2022/03/10 09:01:29;;;;;;;15.43;13.83;;;;;;;15.41;31.28;102510.59;4992097;28;20485;-69
2022/03/10 09:03:54;;;;;;;16.27;14.00;;;;;;;16.20;30.28;102499.66;4989626;28;20167;-69
2022/03/10 09:06:20;;;;;;;16.47;13.67;;;;;;;16.32;29.81;102489.31;4995622;28;20449;-70
2022/03/10 09:08:45;;;;;;;14.23;12.83;;;;;;;17.01;28.79;102472.63;4992933;28;20227;-68
2022/03/10 09:11:11;;;;;;;16.40;13.10;;;;;;;14.48;32.14;102499.13;5001650;28;20420;-69
2022/03/10 09:13:36;;;;;;;15.03;13.50;;;;;;;14.84;32.47;102493.78;5001238;28;20221;-69
2022/03/10 09:16:02;;;;;;;16.90;13.57;;;;;;;15.89;30.71;102483.41;4990148;28;20254;-70
2022/03/10 09:18:27;;;;;;;14.93;12.63;;;;;;;16.58;29.74;102478.22;5000792;28;20176;-69
2022/03/10 09:20:52;;;;;;;14.47;13.00;;;;;;;16.03;30.10;102483.59;5000611;28;20183;-68
2022/03/10 09:23:18;;;;;;;14.33;12.63;;;;;;;14.70;32.27;102483.00;4996773;28;20557;-67
2022/03/10 09:25:43;;;;;;;14.77;13.10;;;;;;;16.47;29.80;102475.47;4982442;28;20184;-67
2022/03/10 09:28:10;;;;;;;14.17;12.77;;;;;;;14.98;32.09;102479.19;4999462;28;20212;-68
2022/03/10 09:30:35;;;;;;;13.43;12.27;;;;;;;15.47;31.24;102466.91;5000783;28;20446;-68
2022/03/10 09:33:01;;;;;;;13.77;12.67;;;;;;;17.22;28.81;102455.25;5001073;28;20436;-67
2022/03/10 09:35:27;;;;;;;16.33;12.70;;;;;;;14.97;32.13;102462.53;5000576;28;20206;-67
2022/03/10 09:37:52;;;;;;;15.00;12.60;;;;;;;15.40;31.33;102472.94;5000463;28;20473;-67
2022/03/10 09:40:18;;;;;;;13.57;12.00;;;;;;;16.98;28.96;102459.38;4983700;28;20202;-67
2022/03/10 09:42:46;;;;;;;13.87;12.40;;;;;;;15.64;31.16;102461.06;4999627;28;20250;-69
2022/03/10 09:45:11;;;;;;;14.17;12.80;;;;;;;15.51;30.35;102464.38;4998033;28;20525;-68
2022/03/10 09:47:39;;;;;;;14.63;13.10;;;;;;;15.52;31.30;102476.63;4999614;28;20538;-69
2022/03/10 09:50:06;;;;;;;13.43;12.23;;;;;;;16.23;30.41;102464.59;5000677;28;20175;-69
2022/03/10 09:52:32;;;;;;;14.57;13.07;;;;;;;15.92;31.02;102474.69;5000263;28;20430;-68
2022/03/10 09:55:00;;;;;;;15.53;13.50;;;;;;;14.70;32.64;102476.00;4989652;28;20430;-67
2022/03/10 09:57:27;;;;;;;14.30;12.80;;;;;;;16.03;30.42;102465.19;4986424;28;20199;-68
2022/03/10 09:59:54;;;;;;;13.87;12.37;;;;;;;15.94;29.77;102467.69;5000072;28;20426;-68
2022/03/10 10:02:19;;;;;;;14.07;12.63;;;;;;;15.01;32.62;102468.72;4979010;28;20442;-68
2022/03/10 10:04:46;;;;;;;14.50;12.67;;;;;;;15.63;31.51;102475.09;4995669;28;20450;-68
2022/03/10 10:07:12;;;;;;;13.60;12.30;;;;;;;15.92;31.33;102472.06;5000225;28;20418;-67
2022/03/10 10:09:45;;;;;;;16.20;12.90;;;;;;;14.53;32.54;102479.97;4998180;28;20480;-68
2022/03/10 10:12:12;;;;;;;16.50;13.00;;;;;;;16.31;30.04;102470.88;4998419;28;20306;-68
2022/03/10 10:14:41;;;;;;;14.00;12.53;;;;;;;15.88;30.85;102471.13;4997028;28;20441;-68
2022/03/10 10:17:07;;;;;;;14.43;13.03;;;;;;;17.12;29.61;102463.06;4984430;28;20486;-68
2022/03/10 10:19:34;;;;;;;16.17;13.10;;;;;;;14.35;32.60;102483.97;4986762;28;20447;-68
2022/03/10 10:22:13;;;;;;;17.73;14.00;;;;;;;15.95;31.73;102472.09;4970504;28;22773;-69
2022/03/10 10:24:40;;;;;;;13.77;12.43;;;;;;;16.76;29.75;102474.06;4992246;28;20736;-68
2022/03/10 10:27:19;;;;;;;18.27;13.50;;;;;;;14.45;33.14;102478.09;4997949;28;20465;-67
2022/03/10 10:29:52;;;;;;;14.67;13.00;;;;;;;15.41;32.42;102481.69;4997783;28;20446;-67
2022/03/10 10:32:31;;;;;;;14.80;13.30;;;;;;;15.03;32.80;102472.25;4982822;28;20422;-68
2022/03/10 10:35:00;;;;;;;13.70;12.50;;;;;;;16.60;30.25;102462.44;4999725;28;20681;-66
2022/03/10 10:37:25;;;;;;;14.60;13.10;;;;;;;14.23;33.52;102481.06;4999636;28;20470;-68
2022/03/10 10:39:51;;;;;;;14.83;13.33;;;;;;;15.16;32.71;102483.88;4999880;28;20801;-67
2022/03/10 10:42:17;;;;;;;16.10;13.20;;;;;;;14.97;32.87;102466.91;4999863;28;20490;-67
2022/03/10 10:44:42;;;;;;;15.93;13.60;;;;;;;16.24;31.24;102474.28;5000046;28;20415;-70
2022/03/10 10:47:08;;;;;;;17.77;14.40;;;;;;;15.81;31.50;102467.50;4982789;28;20222;-69
2022/03/10 10:49:37;;;;;;;15.43;13.70;;;;;;;14.97;33.08;102480.03;4999493;28;20171;-69
2022/03/10 10:52:11;;;;;;;14.60;13.20;;;;;;;13.12;35.17;102479.19;5075397;28;20551;-69
2022/03/10 10:54:37;;;;;;;17.30;13.63;;;;;;;13.44;34.88;102487.94;5075561;28;20422;-68
2022/03/10 10:57:06;;;;;;;17.57;13.90;;;;;;;16.32;31.42;102472.63;5075902;28;20764;-68
2022/03/10 10:59:40;;;;;;;15.77;14.17;;;;;;;14.39;33.48;102469.19;5075186;28;20169;-68
2022/03/10 11:02:20;;;;;;;16.00;14.47;;;;;;;14.19;33.97;102469.63;5075243;28;20839;-69
2022/03/10 11:04:48;;;;;;;16.33;13.40;;;;;;;15.42;32.30;102468.56;5075272;28;20461;-68
2022/03/10 11:07:14;;;;;;;14.50;13.03;;;;;;;14.72;33.36;102469.06;5075035;28;20507;-69
2022/03/10 11:09:41;;;;;;;16.03;14.17;;;;;;;16.10;31.56;102459.19;5075139;28;20410;-68
2022/03/10 11:12:09;;;;;;;14.80;12.97;;;;;;;16.65;33.83;102460.75;5075237;28;20817;-58
2022/03/10 11:14:35;;;;;;;12.87;11.67;;;;;;;17.83;33.57;102449.59;5075213;28;20494;-68
2022/03/10 11:17:00;;;;;;;15.10;13.40;;;;;;;15.26;31.67;102469.16;5075064;28;20418;-66